Time;durP1;ratioP1;P1;durP2;ratioP2;P2;SDS_P1;SDS_P2;PMS_P1;PMS_P2;Temp;Humidity;BMP_temperature;BMP_pressure;BME280_temperature;BME280_humidity;BME280_pressure;Samples;Min_cycle;Max_cycle;Signal;HPM_P1;HPM_P2
2021/04/03 00:00:20;;;;;;;6.63;4.50;;;;;;;;;;5012613;28;20504;-74
2021/04/03 00:02:46;;;;;;;7.30;4.80;;;;;;;;;;5012558;28;20463;-74
2021/04/03 00:05:13;;;;;;;6.40;4.60;;;;;;;;;;5013907;28;20401;-74
2021/04/03 00:07:39;;;;;;;6.73;4.50;;;;;;;;;;5012792;28;20930;-74
2021/04/03 00:10:09;;;;;;;6.33;4.70;;;;;;;;;;5013666;28;20532;-74
2021/04/03 00:12:36;;;;;;;6.60;4.50;;;;;;;;;;5011333;28;20496;-73
2021/04/03 00:15:02;;;;;;;5.47;3.57;;;;;;;;;;5013911;28;20443;-74
2021/04/03 00:17:28;;;;;;;7.07;5.10;;;;;;;;;;5012657;28;20437;-74
2021/04/03 00:19:55;;;;;;;6.70;4.90;;;;;;;;;;5013898;28;20511;-74
2021/04/03 00:22:22;;;;;;;5.23;4.27;;;;;;;;;;5013063;28;20426;-74
2021/04/03 00:24:48;;;;;;;10.80;5.33;;;;;;;;;;5013742;28;20400;-74
2021/04/03 00:27:14;;;;;;;9.40;4.97;;;;;;;;;;5011591;28;20589;-74
2021/04/03 00:29:40;;;;;;;8.17;5.37;;;;;;;;;;5013675;28;20796;-73
2021/04/03 00:32:06;;;;;;;5.30;4.10;;;;;;;;;;5011588;28;20434;-74
2021/04/03 00:34:32;;;;;;;7.77;4.67;;;;;;;;;;5013647;28;20414;-74
2021/04/03 00:36:58;;;;;;;7.47;5.03;;;;;;;;;;5012262;28;20452;-74
2021/04/03 00:39:24;;;;;;;8.37;5.27;;;;;;;;;;5013863;28;20457;-73
2021/04/03 00:41:51;;;;;;;7.70;5.33;;;;;;;;;;5011461;28;20884;-74
2021/04/03 00:44:17;;;;;;;14.63;7.13;;;;;;;;;;5013817;28;20474;-74
2021/04/03 00:46:43;;;;;;;8.30;5.43;;;;;;;;;;5012449;28;20425;-74
2021/04/03 00:49:09;;;;;;;7.80;5.63;;;;;;;;;;5012962;28;20429;-74
2021/04/03 00:51:35;;;;;;;7.20;5.03;;;;;;;;;;5012113;28;20447;-74
2021/04/03 00:54:01;;;;;;;8.33;5.70;;;;;;;;;;5013552;28;20408;-73
2021/04/03 00:56:27;;;;;;;8.17;5.40;;;;;;;;;;5012559;28;20499;-74
2021/04/03 00:58:55;;;;;;;10.00;6.40;;;;;;;;;;5014871;28;20929;-74
2021/04/03 01:01:21;;;;;;;8.80;5.30;;;;;;;;;;5016018;28;20476;-74
2021/04/03 01:03:47;;;;;;;10.13;6.43;;;;;;;;;;5016810;28;20499;-74
2021/04/03 01:06:13;;;;;;;10.90;5.90;;;;;;;;;;5016108;28;20480;-75
2021/04/03 01:08:39;;;;;;;10.67;6.10;;;;;;;;;;5015742;28;20437;-74
2021/04/03 01:11:07;;;;;;;8.63;5.50;;;;;;;;;;5015981;28;20410;-74
2021/04/03 01:13:42;;;;;;;10.13;5.30;;;;;;;;;;5016612;28;20436;-74
2021/04/03 01:16:18;;;;;;;8.13;5.90;;;;;;;;;;5015438;28;20893;-73
2021/04/03 01:18:47;;;;;;;8.07;4.57;;;;;;;;;;5016666;28;20413;-73
2021/04/03 01:21:19;;;;;;;7.63;5.43;;;;;;;;;;5015603;28;20765;-74
2021/04/03 01:24:01;;;;;;;7.00;4.77;;;;;;;;;;5016201;28;20412;-74
2021/04/03 01:26:46;;;;;;;7.30;5.40;;;;;;;;;;5010804;28;20425;-75
2021/04/03 01:29:15;;;;;;;12.27;6.30;;;;;;;;;;5010524;28;20447;-74
2021/04/03 01:31:41;;;;;;;7.73;5.50;;;;;;;;;;5015804;28;20447;-74
2021/04/03 01:34:09;;;;;;;9.10;6.40;;;;;;;;;;5015730;28;20408;-74
2021/04/03 01:36:37;;;;;;;9.10;5.53;;;;;;;;;;5015599;28;20793;-74
2021/04/03 01:39:06;;;;;;;7.23;4.80;;;;;;;;;;5015008;28;20478;-75
2021/04/03 01:41:33;;;;;;;8.30;6.27;;;;;;;;;;5016172;28;20424;-75
2021/04/03 01:44:00;;;;;;;6.77;4.60;;;;;;;;;;5014806;28;20511;-74
2021/04/03 01:46:28;;;;;;;6.70;4.83;;;;;;;;;;5015972;28;20421;-74
2021/04/03 01:48:55;;;;;;;7.50;5.27;;;;;;;;;;5013679;28;20461;-73
2021/04/03 01:51:21;;;;;;;7.90;4.63;;;;;;;;;;5014974;28;20428;-74
2021/04/03 01:53:47;;;;;;;7.47;4.53;;;;;;;;;;5015245;28;20519;-74
2021/04/03 01:56:16;;;;;;;12.03;5.30;;;;;;;;;;5014840;28;20937;-75
2021/04/03 01:58:42;;;;;;;7.67;4.70;;;;;;;;;;5014534;28;20437;-74
2021/04/03 02:01:12;;;;;;;6.40;4.03;;;;;;;;;;5015621;28;20472;-74
2021/04/03 02:03:38;;;;;;;6.40;4.87;;;;;;;;;;5013893;28;20429;-74
2021/04/03 02:06:05;;;;;;;8.10;5.43;;;;;;;;;;5015443;28;20408;-73
2021/04/03 02:08:32;;;;;;;8.93;5.50;;;;;;;;;;5014421;28;20425;-74
2021/04/03 02:11:05;;;;;;;7.67;4.27;;;;;;;;;;5014777;28;20413;-74
2021/04/03 02:13:32;;;;;;;7.60;4.80;;;;;;;;;;5013659;28;20443;-74
2021/04/03 02:16:01;;;;;;;8.87;5.33;;;;;;;;;;5015290;28;20773;-74
2021/04/03 02:18:29;;;;;;;8.90;4.50;;;;;;;;;;5014411;28;20422;-74
2021/04/03 02:20:56;;;;;;;7.70;4.70;;;;;;;;;;5015276;28;20564;-73
2021/04/03 02:23:22;;;;;;;8.07;4.13;;;;;;;;;;5014530;28;20508;-75
2021/04/03 02:25:48;;;;;;;4.70;3.30;;;;;;;;;;5014974;28;20397;-73
2021/04/03 02:28:14;;;;;;;14.13;3.87;;;;;;;;;;5014237;28;20490;-74
2021/04/03 02:30:40;;;;;;;9.80;5.77;;;;;;;;;;5015018;28;20418;-74
2021/04/03 02:33:06;;;;;;;6.73;4.13;;;;;;;;;;5014095;28;20434;-74
2021/04/03 02:35:32;;;;;;;7.60;4.40;;;;;;;;;;5014786;28;20407;-74
2021/04/03 02:37:59;;;;;;;8.00;4.77;;;;;;;;;;5014023;28;20444;-74
2021/04/03 02:40:27;;;;;;;9.70;5.10;;;;;;;;;;5014909;28;20482;-74
2021/04/03 02:43:02;;;;;;;9.20;4.27;;;;;;;;;;5012906;28;20486;-75
2021/04/03 02:45:29;;;;;;;5.83;3.77;;;;;;;;;;5015120;28;20427;-74
2021/04/03 02:48:00;;;;;;;7.50;3.87;;;;;;;;;;5014036;28;20937;-75
2021/04/03 02:50:28;;;;;;;11.10;3.80;;;;;;;;;;5014043;28;20492;-74
2021/04/03 02:52:54;;;;;;;6.80;4.03;;;;;;;;;;5013813;28;20433;-74
2021/04/03 02:55:22;;;;;;;7.80;4.07;;;;;;;;;;5014787;28;20455;-73
2021/04/03 02:57:48;;;;;;;5.77;3.70;;;;;;;;;;5012770;28;20536;-74
2021/04/03 03:00:16;;;;;;;4.70;4.20;;;;;;;;;;5013614;28;20486;-74
2021/04/03 03:02:42;;;;;;;8.57;3.80;;;;;;;;;;5007662;28;20428;-75
2021/04/03 03:05:09;;;;;;;7.10;4.67;;;;;;;;;;5012786;28;20421;-74
2021/04/03 03:07:38;;;;;;;8.70;4.10;;;;;;;;;;5012224;28;20440;-74
2021/04/03 03:10:05;;;;;;;8.90;4.13;;;;;;;;;;5014248;28;20430;-74
2021/04/03 03:12:33;;;;;;;13.23;4.40;;;;;;;;;;5013606;28;20438;-74
2021/04/03 03:15:00;;;;;;;9.00;4.20;;;;;;;;;;5013978;28;20495;-74
2021/04/03 03:17:28;;;;;;;11.10;4.20;;;;;;;;;;5013503;28;20400;-74
2021/04/03 03:19:54;;;;;;;9.50;4.43;;;;;;;;;;5014575;28;20452;-74
2021/04/03 03:22:21;;;;;;;6.33;3.67;;;;;;;;;;5012883;28;20412;-75
2021/04/03 03:24:47;;;;;;;11.33;3.70;;;;;;;;;;5013577;28;20416;-74
2021/04/03 03:27:13;;;;;;;8.43;3.90;;;;;;;;;;5014226;28;20802;-76
2021/04/03 03:29:40;;;;;;;5.03;3.50;;;;;;;;;;5014242;28;20494;-74
2021/04/03 03:32:06;;;;;;;9.47;4.60;;;;;;;;;;5014443;28;20408;-74
2021/04/03 03:34:32;;;;;;;5.80;4.30;;;;;;;;;;5012804;28;20456;-75
2021/04/03 03:36:59;;;;;;;7.33;4.90;;;;;;;;;;5014668;28;20427;-74
2021/04/03 03:39:25;;;;;;;5.77;4.30;;;;;;;;;;5014032;28;20471;-74
2021/04/03 03:41:54;;;;;;;8.10;4.30;;;;;;;;;;5014338;28;20408;-74
2021/04/03 03:44:21;;;;;;;5.77;3.33;;;;;;;;;;5010038;28;20508;-74
2021/04/03 03:46:47;;;;;;;8.17;4.27;;;;;;;;;;4994666;28;20407;-74
2021/04/03 03:49:13;;;;;;;7.30;4.07;;;;;;;;;;5009773;28;20445;-75
2021/04/03 03:51:39;;;;;;;9.17;5.87;;;;;;;;;;5014301;28;20416;-74
2021/04/03 03:54:05;;;;;;;9.67;3.77;;;;;;;;;;5013381;28;20429;-73
2021/04/03 03:56:32;;;;;;;6.80;4.37;;;;;;;;;;5014056;28;20409;-73
2021/04/03 03:58:58;;;;;;;11.13;3.80;;;;;;;;;;5011552;28;20495;-74
2021/04/03 04:01:24;;;;;;;7.50;3.87;;;;;;;;;;5014162;28;20402;-73
2021/04/03 04:03:50;;;;;;;7.43;4.60;;;;;;;;;;5012878;28;20452;-73
2021/04/03 04:06:16;;;;;;;10.40;4.43;;;;;;;;;;5014273;28;20440;-74
2021/04/03 04:08:43;;;;;;;9.63;4.60;;;;;;;;;;5011904;28;20880;-75
2021/04/03 04:11:10;;;;;;;6.90;4.97;;;;;;;;;;5013973;28;20401;-73
2021/04/03 04:13:37;;;;;;;7.83;4.53;;;;;;;;;;5012693;28;20797;-74
2021/04/03 04:16:04;;;;;;;10.43;4.70;;;;;;;;;;5013789;28;20441;-73
2021/04/03 04:18:30;;;;;;;10.50;3.70;;;;;;;;;;5012868;28;20507;-74
2021/04/03 04:20:56;;;;;;;5.53;3.70;;;;;;;;;;5014294;28;20488;-74
2021/04/03 04:23:22;;;;;;;11.40;5.33;;;;;;;;;;5011809;28;20455;-74
2021/04/03 04:25:48;;;;;;;9.60;4.00;;;;;;;;;;5013690;28;20405;-73
2021/04/03 04:28:14;;;;;;;7.57;4.27;;;;;;;;;;5012728;28;20437;-75
2021/04/03 04:30:40;;;;;;;7.33;4.47;;;;;;;;;;5013592;28;20459;-74
2021/04/03 04:33:06;;;;;;;7.10;4.90;;;;;;;;;;5012585;28;20436;-74
2021/04/03 04:35:32;;;;;;;10.23;3.80;;;;;;;;;;5017622;28;20401;-73
2021/04/03 04:37:58;;;;;;;9.00;4.03;;;;;;;;;;5016499;28;20551;-74
2021/04/03 04:40:24;;;;;;;6.43;4.00;;;;;;;;;;5017002;28;20469;-73
2021/04/03 04:42:51;;;;;;;8.53;5.10;;;;;;;;;;5013628;28;20433;-74
2021/04/03 04:45:17;;;;;;;8.50;4.47;;;;;;;;;;5017441;28;20712;-73
2021/04/03 04:47:43;;;;;;;6.93;4.37;;;;;;;;;;5016354;28;20886;-74
2021/04/03 04:50:10;;;;;;;8.10;4.50;;;;;;;;;;4997075;28;20478;-74
2021/04/03 04:52:37;;;;;;;8.33;4.80;;;;;;;;;;4997776;28;20397;-73
2021/04/03 04:55:03;;;;;;;7.33;5.00;;;;;;;;;;5016550;28;20821;-74
2021/04/03 04:57:29;;;;;;;7.47;4.60;;;;;;;;;;5017064;28;20416;-74
2021/04/03 04:59:55;;;;;;;5.90;3.80;;;;;;;;;;5015767;28;20474;-73
2021/04/03 05:02:25;;;;;;;6.53;4.50;;;;;;;;;;5016032;28;20494;-73
2021/04/03 05:04:51;;;;;;;6.20;3.80;;;;;;;;;;5016227;28;20429;-72
2021/04/03 05:07:17;;;;;;;12.20;5.30;;;;;;;;;;5017033;28;20880;-73
2021/04/03 05:09:43;;;;;;;8.23;4.23;;;;;;;;;;5015992;28;20844;-73
2021/04/03 05:12:10;;;;;;;6.60;5.13;;;;;;;;;;5016896;28;20408;-73
2021/04/03 05:14:36;;;;;;;6.67;4.33;;;;;;;;;;5015803;28;20903;-73
2021/04/03 05:17:02;;;;;;;10.00;4.67;;;;;;;;;;5015958;28;20464;-73
2021/04/03 05:19:28;;;;;;;7.37;5.03;;;;;;;;;;5015419;28;20459;-73
2021/04/03 05:21:54;;;;;;;10.30;4.23;;;;;;;;;;5016943;28;20415;-74
2021/04/03 05:24:20;;;;;;;6.30;4.30;;;;;;;;;;5016033;28;20433;-73
2021/04/03 05:26:47;;;;;;;10.27;4.50;;;;;;;;;;5016521;28;20411;-73
2021/04/03 05:29:13;;;;;;;10.70;4.80;;;;;;;;;;5014643;28;20471;-73
2021/04/03 05:31:39;;;;;;;13.20;5.77;;;;;;;;;;5016507;28;20432;-74
2021/04/03 05:34:05;;;;;;;10.63;4.97;;;;;;;;;;5015466;28;20798;-74
2021/04/03 05:36:31;;;;;;;6.70;4.17;;;;;;;;;;5016456;28;20869;-74
2021/04/03 05:38:57;;;;;;;11.37;4.27;;;;;;;;;;5015237;28;20454;-73
2021/04/03 05:41:24;;;;;;;8.50;4.40;;;;;;;;;;5016296;28;20401;-73
2021/04/03 05:43:53;;;;;;;7.63;3.57;;;;;;;;;;5015332;28;20430;-73
2021/04/03 05:46:19;;;;;;;5.87;3.37;;;;;;;;;;5015092;28;20405;-73
2021/04/03 05:48:46;;;;;;;6.07;4.00;;;;;;;;;;5014962;28;20426;-73
2021/04/03 05:51:14;;;;;;;6.97;3.23;;;;;;;;;;5016499;28;20456;-73
2021/04/03 05:53:40;;;;;;;7.10;3.30;;;;;;;;;;5013872;28;20590;-73
2021/04/03 05:56:06;;;;;;;6.93;3.33;;;;;;;;;;5016117;28;20462;-74
2021/04/03 05:58:32;;;;;;;5.80;3.30;;;;;;;;;;5015372;28;20512;-72
2021/04/03 06:00:58;;;;;;;12.07;3.63;;;;;;;;;;5016389;28;20452;-74
2021/04/03 06:03:25;;;;;;;6.23;3.20;;;;;;;;;;5014919;28;20959;-73
2021/04/03 06:05:52;;;;;;;7.63;3.50;;;;;;;;;;5016111;28;20743;-73
2021/04/03 06:08:18;;;;;;;5.67;2.67;;;;;;;;;;5014624;28;20910;-72
2021/04/03 06:11:02;;;;;;;5.63;2.47;;;;;;;;;;5015717;28;20424;-73
2021/04/03 06:13:28;;;;;;;5.00;2.83;;;;;;;;;;5014991;28;20424;-73
2021/04/03 06:15:54;;;;;;;8.00;2.80;;;;;;;;;;5015323;28;20421;-73
2021/04/03 06:18:21;;;;;;;6.00;3.00;;;;;;;;;;5014384;28;20415;-73
2021/04/03 06:20:47;;;;;;;4.27;2.50;;;;;;;;;;5014244;28;20469;-72
2021/04/03 06:23:13;;;;;;;4.17;2.67;;;;;;;;;;5013703;28;20888;-73
2021/04/03 06:25:56;;;;;;;5.73;2.77;;;;;;;;;;5015339;28;20880;-73
2021/04/03 06:28:27;;;;;;;3.97;2.63;;;;;;;;;;5014450;28;20490;-73
2021/04/03 06:30:57;;;;;;;8.73;2.80;;;;;;;;;;5015101;28;20433;-73
2021/04/03 06:33:23;;;;;;;4.73;2.80;;;;;;;;;;5015156;28;20406;-73
2021/04/03 06:36:08;;;;;;;5.73;2.93;;;;;;;;;;5014151;28;20449;-72
2021/04/03 06:38:34;;;;;;;5.90;2.70;;;;;;;;;;5014992;28;20423;-74
2021/04/03 06:41:16;;;;;;;4.43;2.53;;;;;;;;;;5014172;28;20827;-74
2021/04/03 06:43:42;;;;;;;5.13;3.00;;;;;;;;;;5015057;28;20500;-74
2021/04/03 06:46:24;;;;;;;5.57;3.10;;;;;;;;;;5013848;28;20435;-74
2021/04/03 06:48:54;;;;;;;5.70;3.37;;;;;;;;;;5014550;28;20513;-73
2021/04/03 06:51:24;;;;;;;7.10;3.40;;;;;;;;;;4995372;28;20427;-73
2021/04/03 06:53:51;;;;;;;10.83;3.73;;;;;;;;;;4998278;28;20433;-74
2021/04/03 06:56:20;;;;;;;5.30;3.10;;;;;;;;;;5014576;28;20508;-74
2021/04/03 06:58:47;;;;;;;5.20;2.60;;;;;;;;;;5014564;28;20414;-73
2021/04/03 07:01:17;;;;;;;5.03;2.87;;;;;;;;;;5014141;28;20454;-74
2021/04/03 07:03:44;;;;;;;9.83;3.27;;;;;;;;;;5014666;28;20414;-74
2021/04/03 07:06:11;;;;;;;9.10;3.00;;;;;;;;;;5014087;28;20431;-73
2021/04/03 07:08:38;;;;;;;6.77;3.47;;;;;;;;;;5014802;28;20400;-74
2021/04/03 07:11:06;;;;;;;5.30;2.90;;;;;;;;;;5013420;28;20486;-73
2021/04/03 07:13:32;;;;;;;5.70;2.93;;;;;;;;;;5014141;28;20396;-74
2021/04/03 07:16:00;;;;;;;4.37;3.10;;;;;;;;;;5013097;28;20426;-73
2021/04/03 07:18:27;;;;;;;5.70;2.63;;;;;;;;;;5014295;28;20412;-73
2021/04/03 07:20:54;;;;;;;4.47;3.03;;;;;;;;;;5013414;28;20614;-74
2021/04/03 07:23:21;;;;;;;6.57;3.37;;;;;;;;;;5014371;28;20413;-74
2021/04/03 07:25:47;;;;;;;7.17;3.90;;;;;;;;;;5013801;28;20429;-73
2021/04/03 07:28:16;;;;;;;5.67;3.00;;;;;;;;;;5014142;28;20528;-73
2021/04/03 07:30:44;;;;;;;6.03;2.87;;;;;;;;;;5013313;28;20472;-74
2021/04/03 07:33:14;;;;;;;8.43;3.20;;;;;;;;;;5014165;28;20437;-74
2021/04/03 07:35:56;;;;;;;3.60;2.97;;;;;;;;;;5013343;28;20447;-73
2021/04/03 07:38:23;;;;;;;9.07;3.47;;;;;;;;;;5013680;28;20451;-74
2021/04/03 07:40:53;;;;;;;5.50;2.67;;;;;;;;;;5012892;28;20504;-73
2021/04/03 07:43:41;;;;;;;8.00;3.00;;;;;;;;;;5014279;28;20404;-74
2021/04/03 07:46:11;;;;;;;4.63;2.80;;;;;;;;;;5013344;28;20433;-74
2021/04/03 07:48:40;;;;;;;8.30;3.47;;;;;;;;;;5014156;28;20435;-74
2021/04/03 07:51:07;;;;;;;5.33;3.20;;;;;;;;;;5012799;28;20437;-73
2021/04/03 07:53:34;;;;;;;7.20;3.20;;;;;;;;;;5014132;28;20414;-73
2021/04/03 07:56:00;;;;;;;5.37;3.53;;;;;;;;;;5012204;28;20440;-73
2021/04/03 07:58:27;;;;;;;4.87;2.90;;;;;;;;;;5013967;28;20440;-74
2021/04/03 08:00:53;;;;;;;4.30;3.20;;;;;;;;;;5012812;28;20609;-75
2021/04/03 08:03:24;;;;;;;5.80;3.67;;;;;;;;;;5014344;28;20500;-74
2021/04/03 08:06:06;;;;;;;5.10;2.83;;;;;;;;;;5013117;28;20425;-73
2021/04/03 08:08:34;;;;;;;10.40;3.83;;;;;;;;;;5016778;28;20418;-74
2021/04/03 08:11:13;;;;;;;6.57;3.63;;;;;;;;;;5018560;28;20460;-74
2021/04/03 08:13:44;;;;;;;3.80;2.80;;;;;;;;;;5020396;28;20990;-74
2021/04/03 08:16:11;;;;;;;4.27;2.90;;;;;;;;;;5019710;28;20863;-73
2021/04/03 08:18:38;;;;;;;7.70;3.00;;;;;;;;;;5020080;28;20409;-73
2021/04/03 08:21:05;;;;;;;3.80;3.00;;;;;;;;;;5017153;28;20493;-74
2021/04/03 08:23:41;;;;;;;4.00;2.50;;;;;;;;;;5018538;28;20468;-74
2021/04/03 08:26:08;;;;;;;4.00;2.80;;;;;;;;;;5014012;28;20423;-72
2021/04/03 08:28:35;;;;;;;4.77;2.53;;;;;;;;;;5014977;28;20959;-73
2021/04/03 08:31:19;;;;;;;5.23;3.00;;;;;;;;;;5019178;28;20432;-73
2021/04/03 08:33:46;;;;;;;6.93;3.37;;;;;;;;;;5019336;28;20419;-73
2021/04/03 08:36:13;;;;;;;2.90;2.30;;;;;;;;;;5018062;28;20483;-73
2021/04/03 08:38:41;;;;;;;5.17;2.67;;;;;;;;;;5017266;28;20538;-72
2021/04/03 08:41:07;;;;;;;4.30;2.30;;;;;;;;;;5008706;28;20991;-72
2021/04/03 08:43:34;;;;;;;5.33;2.73;;;;;;;;;;5008380;28;20442;-73
2021/04/03 08:46:05;;;;;;;4.37;2.93;;;;;;;;;;5008220;28;20450;-73
2021/04/03 08:48:31;;;;;;;5.97;3.10;;;;;;;;;;5019952;28;20402;-73
2021/04/03 08:50:57;;;;;;;7.73;2.70;;;;;;;;;;5017675;28;20440;-73
2021/04/03 08:53:23;;;;;;;9.13;3.27;;;;;;;;;;5016577;28;20872;-73
2021/04/03 08:55:49;;;;;;;7.13;3.30;;;;;;;;;;5013501;28;20460;-74
2021/04/03 08:58:15;;;;;;;3.50;2.70;;;;;;;;;;5006263;28;20453;-75
2021/04/03 09:00:44;;;;;;;5.97;2.77;;;;;;;;;;5018425;28;20470;-75
2021/04/03 09:03:12;;;;;;;5.33;2.83;;;;;;;;;;5017951;28;20816;-73
2021/04/03 09:05:38;;;;;;;4.10;2.70;;;;;;;;;;5014947;28;20644;-72
2021/04/03 09:08:18;;;;;;;4.33;3.10;;;;;;;;;;5014980;28;21085;-73
2021/04/03 09:10:44;;;;;;;8.80;3.30;;;;;;;;;;5003030;28;20523;-72
2021/04/03 09:13:14;;;;;;;6.63;3.97;;;;;;;;;;5018468;28;20420;-70
2021/04/03 09:15:43;;;;;;;5.50;3.33;;;;;;;;;;5012845;28;20830;-72
2021/04/03 09:18:10;;;;;;;5.30;3.03;;;;;;;;;;5008278;28;20440;-73
2021/04/03 09:20:45;;;;;;;5.20;3.17;;;;;;;;;;5014302;28;20577;-72
2021/04/03 09:23:11;;;;;;;4.93;2.77;;;;;;;;;;5006240;28;20412;-73
2021/04/03 09:25:37;;;;;;;3.87;3.10;;;;;;;;;;5015756;28;20505;-70
2021/04/03 09:28:11;;;;;;;3.63;2.83;;;;;;;;;;5009361;28;21225;-73
2021/04/03 09:30:42;;;;;;;5.40;3.33;;;;;;;;;;5007183;28;20456;-73
2021/04/03 09:33:14;;;;;;;6.17;3.10;;;;;;;;;;5004635;28;20425;-72
2021/04/03 09:35:41;;;;;;;7.97;3.37;;;;;;;;;;5013700;28;20436;-73
2021/04/03 09:38:07;;;;;;;6.07;4.27;;;;;;;;;;5011850;28;20489;-73
2021/04/03 09:40:44;;;;;;;6.23;3.77;;;;;;;;;;5013604;28;20524;-74
2021/04/03 09:43:11;;;;;;;5.63;3.20;;;;;;;;;;5015394;28;20453;-74
2021/04/03 09:45:37;;;;;;;9.27;3.33;;;;;;;;;;5011101;28;20438;-72
2021/04/03 09:48:03;;;;;;;4.23;2.87;;;;;;;;;;5012770;28;20422;-74
2021/04/03 09:50:30;;;;;;;7.80;3.20;;;;;;;;;;5013049;28;20451;-72
2021/04/03 09:52:56;;;;;;;7.50;3.67;;;;;;;;;;5010352;28;20500;-72
2021/04/03 09:55:22;;;;;;;4.17;3.07;;;;;;;;;;5013231;28;20470;-74
2021/04/03 09:57:48;;;;;;;5.57;2.90;;;;;;;;;;4999792;28;20468;-74
2021/04/03 10:00:14;;;;;;;7.23;2.97;;;;;;;;;;5008395;28;20465;-72
2021/04/03 10:02:40;;;;;;;8.40;3.57;;;;;;;;;;5015175;28;20398;-75
2021/04/03 10:05:07;;;;;;;7.40;3.27;;;;;;;;;;5014217;28;20830;-72
2021/04/03 10:07:33;;;;;;;7.07;3.43;;;;;;;;;;5015080;28;20421;-74
2021/04/03 10:09:59;;;;;;;8.77;3.73;;;;;;;;;;5013395;28;20462;-73
2021/04/03 10:12:25;;;;;;;7.17;2.97;;;;;;;;;;5015525;28;20406;-72
2021/04/03 10:14:51;;;;;;;5.50;2.73;;;;;;;;;;5014272;28;20429;-74
2021/04/03 10:17:17;;;;;;;5.13;3.00;;;;;;;;;;5014027;28;20423;-72
2021/04/03 10:19:43;;;;;;;5.67;3.07;;;;;;;;;;5013130;28;20475;-72
2021/04/03 10:22:09;;;;;;;4.53;2.60;;;;;;;;;;5014458;28;20418;-72
2021/04/03 10:24:35;;;;;;;6.67;3.27;;;;;;;;;;5013727;28;20457;-72
2021/04/03 10:27:01;;;;;;;6.00;2.80;;;;;;;;;;5014821;28;20418;-72
2021/04/03 10:29:27;;;;;;;5.28;2.55;;;;;;;;;;5012161;28;20461;-72
2021/04/03 10:31:53;;;;;;;6.47;3.50;;;;;;;;;;5002961;28;20661;-73
2021/04/03 10:34:19;;;;;;;5.43;2.67;;;;;;;;;;5013105;28;20461;-74
2021/04/03 10:36:45;;;;;;;4.33;2.60;;;;;;;;;;5013557;28;20473;-72
2021/04/03 10:39:12;;;;;;;4.43;2.73;;;;;;;;;;5011306;28;20454;-74
2021/04/03 10:41:38;;;;;;;5.63;2.50;;;;;;;;;;5014115;28;20449;-74
2021/04/03 10:44:04;;;;;;;4.60;2.40;;;;;;;;;;5012363;28;20430;-70
2021/04/03 10:46:30;;;;;;;5.10;2.30;;;;;;;;;;5013190;28;20417;-73
2021/04/03 10:48:57;;;;;;;3.87;2.43;;;;;;;;;;5002875;28;20445;-74
2021/04/03 10:51:23;;;;;;;6.47;2.83;;;;;;;;;;5023034;23;20528;-80
2021/04/03 10:53:49;;;;;;;3.43;2.43;;;;;;;;;;5016837;28;20520;-84
2021/04/03 10:56:18;;;;;;;3.97;2.23;;;;;;;;;;5019536;28;20405;-84
2021/04/03 10:58:44;;;;;;;4.03;2.60;;;;;;;;;;5016081;28;20405;-84
2021/04/03 11:01:10;;;;;;;5.00;2.90;;;;;;;;;;5033598;23;20455;-77
2021/04/03 11:03:36;;;;;;;4.13;2.20;;;;;;;;;;5019058;28;20501;-77
2021/04/03 11:06:02;;;;;;;4.23;2.67;;;;;;;;;;5033855;28;20488;-75
2021/04/03 11:08:29;;;;;;;5.13;2.83;;;;;;;;;;5020588;28;20505;-73
2021/04/03 11:10:55;;;;;;;6.03;3.07;;;;;;;;;;5011453;28;20441;-76
2021/04/03 11:13:21;;;;;;;5.10;2.60;;;;;;;;;;5022958;28;20785;-74
2021/04/03 11:15:48;;;;;;;5.33;2.80;;;;;;;;;;5019054;28;20981;-74
2021/04/03 11:18:14;;;;;;;4.93;2.57;;;;;;;;;;5019356;28;20501;-77
2021/04/03 11:20:40;;;;;;;4.50;2.43;;;;;;;;;;5014808;28;20997;-77
2021/04/03 11:23:06;;;;;;;9.80;3.00;;;;;;;;;;5017766;28;20517;-76
2021/04/03 11:25:33;;;;;;;4.80;2.80;;;;;;;;;;5026074;28;20476;-74
2021/04/03 11:28:00;;;;;;;5.03;3.00;;;;;;;;;;5017439;28;20464;-73
2021/04/03 11:30:26;;;;;;;4.50;2.80;;;;;;;;;;5012345;28;20434;-72
2021/04/03 11:32:52;;;;;;;6.43;3.00;;;;;;;;;;5019210;28;20425;-73
2021/04/03 11:35:20;;;;;;;5.60;2.83;;;;;;;;;;5016852;28;20434;-75
2021/04/03 11:37:47;;;;;;;5.63;2.33;;;;;;;;;;5027947;28;20870;-75
2021/04/03 11:40:14;;;;;;;3.97;2.63;;;;;;;;;;5015750;28;20454;-73
2021/04/03 11:42:40;;;;;;;3.73;2.40;;;;;;;;;;5021978;28;20979;-72
2021/04/03 11:45:07;;;;;;;3.90;3.13;;;;;;;;;;5016649;28;20429;-73
2021/04/03 11:47:34;;;;;;;8.23;2.70;;;;;;;;;;5021699;28;20444;-74
2021/04/03 11:50:00;;;;;;;6.43;2.50;;;;;;;;;;5018205;28;20513;-74
2021/04/03 11:52:28;;;;;;;5.27;2.93;;;;;;;;;;5030173;28;20209;-72
2021/04/03 11:54:54;;;;;;;9.20;2.80;;;;;;;;;;5023753;28;20421;-73
2021/04/03 11:57:20;;;;;;;5.07;3.10;;;;;;;;;;5027769;28;20980;-74
2021/04/03 11:59:47;;;;;;;3.30;2.20;;;;;;;;;;5013460;28;20996;-73
2021/04/03 12:02:13;;;;;;;4.43;2.50;;;;;;;;;;5016327;28;21053;-73
2021/04/03 12:04:39;;;;;;;4.07;2.10;;;;;;;;;;5010881;28;20434;-73
2021/04/03 12:07:06;;;;;;;5.27;2.43;;;;;;;;;;5012531;28;20475;-73
2021/04/03 12:09:32;;;;;;;3.00;2.03;;;;;;;;;;5011674;28;20936;-74
2021/04/03 12:11:58;;;;;;;5.33;2.50;;;;;;;;;;5012197;28;20441;-75
2021/04/03 12:14:24;;;;;;;7.10;2.60;;;;;;;;;;5013626;28;20508;-72
2021/04/03 12:16:50;;;;;;;3.77;2.43;;;;;;;;;;5033215;28;20410;-71
2021/04/03 12:19:16;;;;;;;3.40;2.50;;;;;;;;;;5016996;28;20457;-70
2021/04/03 12:21:43;;;;;;;3.20;1.93;;;;;;;;;;5013540;28;20435;-73
2021/04/03 12:24:09;;;;;;;5.67;2.00;;;;;;;;;;5024322;28;20421;-72
2021/04/03 12:26:35;;;;;;;6.10;2.10;;;;;;;;;;5012714;28;20403;-72
2021/04/03 12:29:01;;;;;;;2.70;1.50;;;;;;;;;;5027240;28;20414;-71
2021/04/03 12:31:27;;;;;;;5.53;2.13;;;;;;;;;;5029544;28;20460;-72
2021/04/03 12:33:53;;;;;;;3.33;1.87;;;;;;;;;;5017730;28;20433;-69
2021/04/03 12:36:19;;;;;;;3.90;1.97;;;;;;;;;;5022782;28;20421;-71
2021/04/03 12:38:45;;;;;;;3.60;2.10;;;;;;;;;;5010800;28;20789;-71
2021/04/03 12:41:12;;;;;;;4.00;2.30;;;;;;;;;;5019823;28;20464;-72
2021/04/03 12:43:38;;;;;;;5.43;2.10;;;;;;;;;;5023308;28;20465;-73
2021/04/03 12:46:05;;;;;;;4.90;1.90;;;;;;;;;;5022416;28;20493;-72
2021/04/03 12:48:31;;;;;;;5.50;2.20;;;;;;;;;;5013579;28;20784;-72
2021/04/03 12:50:57;;;;;;;3.20;2.20;;;;;;;;;;5024319;28;20443;-71
2021/04/03 12:53:23;;;;;;;3.10;1.80;;;;;;;;;;5022259;28;20425;-70
2021/04/03 12:55:49;;;;;;;4.40;2.13;;;;;;;;;;5018081;28;20413;-74
2021/04/03 12:58:15;;;;;;;5.53;1.87;;;;;;;;;;5021044;28;20413;-71
2021/04/03 13:00:41;;;;;;;5.73;2.57;;;;;;;;;;5020953;28;20475;-72
2021/04/03 13:03:07;;;;;;;3.90;2.83;;;;;;;;;;5033874;28;20429;-71
2021/04/03 13:05:33;;;;;;;2.57;1.73;;;;;;;;;;5020545;28;20435;-73
2021/04/03 13:07:59;;;;;;;2.93;2.37;;;;;;;;;;5030836;28;20768;-73
2021/04/03 13:10:26;;;;;;;4.40;2.03;;;;;;;;;;5015102;28;20870;-72
2021/04/03 13:12:52;;;;;;;3.93;1.90;;;;;;;;;;5026843;28;20469;-70
2021/04/03 13:15:18;;;;;;;3.20;1.93;;;;;;;;;;5030708;28;20477;-72
2021/04/03 13:17:44;;;;;;;5.37;1.83;;;;;;;;;;5030347;28;20487;-70
2021/04/03 13:20:11;;;;;;;3.57;1.90;;;;;;;;;;5014647;28;20461;-72
2021/04/03 13:22:37;;;;;;;4.73;2.53;;;;;;;;;;5027094;28;20441;-71
2021/04/03 13:25:04;;;;;;;4.33;2.57;;;;;;;;;;5016265;28;20420;-71
2021/04/03 13:27:30;;;;;;;2.60;2.00;;;;;;;;;;5018859;28;20416;-72
2021/04/03 13:29:56;;;;;;;4.43;2.47;;;;;;;;;;5029778;28;20427;-71
2021/04/03 13:32:22;;;;;;;4.13;2.43;;;;;;;;;;5032929;28;20516;-72
2021/04/03 13:34:49;;;;;;;4.10;1.70;;;;;;;;;;5025183;28;20442;-73
2021/04/03 13:37:15;;;;;;;6.70;2.07;;;;;;;;;;5032924;28;20425;-73
2021/04/03 13:39:41;;;;;;;3.33;2.33;;;;;;;;;;5023081;28;20516;-68
2021/04/03 13:42:07;;;;;;;4.07;1.97;;;;;;;;;;5015323;28;20439;-68
2021/04/03 13:44:33;;;;;;;2.90;2.10;;;;;;;;;;5025508;28;20422;-66
2021/04/03 13:47:00;;;;;;;5.23;2.47;;;;;;;;;;5015120;28;20772;-67
2021/04/03 13:49:27;;;;;;;4.50;3.40;;;;;;;;;;5021566;28;20441;-67
2021/04/03 13:51:53;;;;;;;3.37;2.07;;;;;;;;;;5024212;28;20932;-68
2021/04/03 13:54:19;;;;;;;2.50;1.80;;;;;;;;;;5018064;28;20848;-66
2021/04/03 13:56:45;;;;;;;3.60;2.10;;;;;;;;;;5020282;28;20912;-67
2021/04/03 13:59:11;;;;;;;5.97;2.40;;;;;;;;;;5013485;28;20421;-66
2021/04/03 14:01:37;;;;;;;6.07;2.20;;;;;;;;;;5016541;28;20467;-67
2021/04/03 14:04:03;;;;;;;4.20;2.50;;;;;;;;;;5029544;28;20410;-66
2021/04/03 14:06:29;;;;;;;3.43;2.67;;;;;;;;;;5013821;28;20439;-67
2021/04/03 14:08:56;;;;;;;5.17;2.97;;;;;;;;;;5015616;28;20443;-67
2021/04/03 14:11:22;;;;;;;3.53;2.57;;;;;;;;;;5030931;28;20452;-68
2021/04/03 14:13:48;;;;;;;3.13;2.17;;;;;;;;;;5028752;28;20413;-67
2021/04/03 14:16:14;;;;;;;4.20;1.80;;;;;;;;;;5011929;28;20836;-68
2021/04/03 14:18:41;;;;;;;4.83;2.17;;;;;;;;;;5013454;28;20956;-67
2021/04/03 14:21:07;;;;;;;6.43;2.47;;;;;;;;;;4997713;28;20966;-67
2021/04/03 14:23:35;;;;;;;3.30;1.73;;;;;;;;;;4994746;28;20473;-68
2021/04/03 14:26:02;;;;;;;4.97;2.10;;;;;;;;;;5009658;28;20420;-67
2021/04/03 14:28:28;;;;;;;4.10;2.30;;;;;;;;;;5014121;28;20432;-67
2021/04/03 14:30:54;;;;;;;7.63;2.53;;;;;;;;;;5013411;28;20924;-67
2021/04/03 14:33:20;;;;;;;3.63;1.90;;;;;;;;;;5014124;28;20762;-67
2021/04/03 14:35:46;;;;;;;4.77;2.67;;;;;;;;;;5020379;28;20429;-68
2021/04/03 14:38:12;;;;;;;4.60;1.93;;;;;;;;;;5017212;28;20425;-72
2021/04/03 14:40:38;;;;;;;3.07;1.97;;;;;;;;;;5015904;28;20536;-72